Shiloh Hill, Illinois
Current Conditions -  °F | °C
As of 2:55 PM on Tuesday 21 Oct 2014 (Local Time) from KSAR Reporting Station
Clear Clear  
Wind Chill: 66°   Ceiling: Unl
Heat Index: 66°   Visibility: 10mi
Dew Point: 45°   Wind: 7mph
Humidity: 45%   Direction: 30°NNE
Pressure: 30.11"   Gusts: NA
Location:  37.9147°N, 89.5934°W
Report Text: KSAR 211955Z AUTO 03006KT 10SM CLR 19/07 A3011 RMK AO2 T01910070
Loading
Personal Weather Stations






























Interactive Weather Map
Tropical Storm Tracking
New forecast layout! Learn more

10-Day Weather Forecast

Advertisements
Track Severe Weather on mobile